Laukaa, Finland
Kieli:  Suomi
CurCond
Päivitetty13/07/2020 13:08 
 

Lähistön Lentoasemien Säätiloja:

 

EFJY - Jyvaskyla (mil/C,) Finland
Etäisyys Sääasemalta: PKo 21km
Päivitetty: 13/07/2020 12:50
Selkeätä
Selkeätä
 Tuulen suunta LLo
Tuuli: LLo 7 km/h
Lämpötila: 15°C
Kastepiste: 7°C
Ilmankosteus: 59%
Ilmanpaine: 1013 hPa
Yhteenveto: Selkeätä
Näkyvyys: Enemmän Kuin 10 km
2020/07/13 09:50 EFJY 130950Z AUTO 24004KT 170V320 CAVOK 15/07 Q1013
EFHA - Halli (fin-Afb), Finland
Etäisyys Sääasemalta: Lo 56km
Päivitetty: 13/07/2020 12:50
Joitain Pilviä
Joitain Pilviä
 Tuulen suunta ELo
Tuuli: ELo 13 km/h
Lämpötila: 17°C
Kastepiste: 6°C
Ilmankosteus: 49%
Ilmanpaine: 1013 hPa
Pilvisyys: Joitain Pilviä
Näkyvyys: 10 km
Pilvisyystiedot: Joitain Pilviä 1128 m
2020/07/13 09:50 EFHA 130950Z AUTO 20007KT 160V240 9999 FEW037 17/06 Q1013
EFMI - Mikkeli, Finland
Etäisyys Sääasemalta: IKa 105km
Päivitetty: 13/07/2020 12:50
Enimmäkseen pilvistä
Enimmäkseen pilvistä
 Tuulen suunta LLo
Tuuli: LLo 9 km/h
Pilvisyys: Enimmäkseen pilvistä
Näkyvyys: 10 km
Pilvisyystiedot: Joitain Pilviä 1219 m
Enimmäkseen pilvistä 5639 m
2020/07/13 09:50 EFMI 130950Z AUTO 24005KT 190V290 9999 FEW040 BKN185 ///// Q////
 
EFTP - Tampere/Pirkkala, Finland
Etäisyys Sääasemalta: Lo 135km
Päivitetty: 13/07/2020 12:50
Lähistöllä Sadekuuroja, Ukkospilviä
Lähistöllä Sadekuuroja, Ukkospilviä
 Tuulen suunta ELo
Tuuli: ELo 15 km/h
Lämpötila: 17°C
Kastepiste: 8°C
Ilmankosteus: 56%
Ilmanpaine: 1014 hPa
Yhteenveto: Lähistöllä Sadekuuroja
Pilvisyys: Ukkospilviä
Näkyvyys: 10 km
Pilvisyystiedot: Puolipilvistä 1128 m
2020/07/13 09:50 EFTP 130950Z AUTO 20008KT 170V240 9999 VCSH SCT037 //////CB 17/08 Q1014
EFKU - Kuopio (mil/Civ), Finland
Etäisyys Sääasemalta: Ko 146km
Päivitetty: 13/07/2020 12:50
Ukkospilviä, Lähistöllä Sadekuuroja
Ukkospilviä, Lähistöllä Sadekuuroja
 Tuulen suunta LLo
Tuuli: LLo 9 km/h
Lämpötila: 16°C
Kastepiste: 11°C
Ilmankosteus: 72%
Ilmanpaine: 1013 hPa
Yhteenveto: Ukkospilviä, Lähistöllä Sadekuuroja
Pilvisyys: Ukkospilviä
Näkyvyys: 10 km
Pilvisyystiedot: Joitain Pilviä 975 m
2020/07/13 09:50 EFKU 130950Z AUTO 25005KT 9999 TS VCSH FEW032 //////CB 16/11 Q1013
EFSI - Seinajoki-Ilmajo, Finland
Etäisyys Sääasemalta: LLu 149km
Päivitetty: 13/07/2020 12:50
Enimmäkseen pilvistä
Enimmäkseen pilvistä
 Tuulen suunta LLo
Tuuli: LLo 6 km/h
Lämpötila: 12°C
Kastepiste: 10°C
Ilmankosteus: 88%
Ilmanpaine: 1013 hPa
Pilvisyys: Enimmäkseen pilvistä
Näkyvyys: 10 km
Pilvisyystiedot: Puolipilvistä 1250 m
Enimmäkseen pilvistä 1524 m
2020/07/13 09:50 EFSI 130950Z AUTO 25003KT 9999 SCT041 BKN050 12/10 Q1013